createdAt,value
2019-05-11T00:00:22.451Z,6.35
2019-05-11T00:05:25.041Z,6.43
2019-05-11T00:10:28.247Z,6.35
2019-05-11T00:15:31.766Z,6.27
2019-05-11T00:20:34.950Z,6.31
2019-05-11T00:25:37.865Z,6.23
2019-05-11T00:30:41.088Z,6.09
2019-05-11T00:35:43.983Z,5.93
2019-05-11T00:40:47.106Z,5.88
2019-05-11T00:45:50.416Z,6.03
2019-05-11T00:50:53.729Z,5.98
2019-05-11T00:55:56.395Z,5.77
2019-05-11T01:00:59.934Z,5.75
2019-05-11T01:06:03.082Z,5.82
2019-05-11T01:11:06.141Z,5.67
2019-05-11T01:16:09.339Z,5.64
2019-05-11T01:21:12.274Z,5.73
2019-05-11T01:26:15.206Z,5.84
2019-05-11T01:31:18.052Z,5.61
2019-05-11T01:36:21.369Z,5.55
2019-05-11T01:41:24.590Z,5.58
2019-05-11T01:46:28.083Z,5.46
2019-05-11T01:51:31.389Z,5.29
2019-05-11T01:56:34.680Z,5.31
2019-05-11T02:01:37.940Z,5.43
2019-05-11T02:06:41.157Z,5.44
2019-05-11T02:11:46.460Z,5.31
2019-05-11T02:16:49.780Z,5.13
2019-05-11T02:21:53.007Z,5.02
2019-05-11T02:26:57.272Z,5.07
2019-05-11T02:32:00.476Z,4.98
2019-05-11T02:37:03.179Z,5.04
2019-05-11T02:42:06.762Z,5.07
2019-05-11T02:47:09.987Z,5.18
2019-05-11T02:52:13.939Z,4.91
2019-05-11T02:57:17.347Z,4.92
2019-05-11T03:02:20.821Z,4.93
2019-05-11T03:07:24.142Z,4.97
2019-05-11T03:12:27.644Z,4.73
2019-05-11T03:17:32.390Z,4.41
2019-05-11T03:22:34.943Z,4.71
2019-05-11T03:27:37.837Z,4.68
2019-05-11T03:32:41.128Z,4.69
2019-05-11T03:37:44.664Z,4.66
2019-05-11T03:42:47.614Z,4.78
2019-05-11T03:47:51.151Z,4.66
2019-05-11T03:52:54.389Z,4.61
2019-05-11T03:57:57.248Z,4.48
2019-05-11T04:03:00.406Z,4.48
2019-05-11T04:08:04.217Z,4.60
2019-05-11T04:13:07.382Z,4.58
2019-05-11T04:18:10.455Z,4.55
2019-05-11T04:23:14.134Z,4.80
2019-05-11T04:28:17.327Z,4.90
2019-05-11T04:33:20.554Z,4.94
2019-05-11T04:38:23.132Z,4.51
2019-05-11T04:43:26.735Z,4.62
2019-05-11T04:48:30.921Z,4.97
2019-05-11T04:53:34.046Z,5.31
2019-05-11T04:58:37.244Z,5.56
2019-05-11T05:03:41.300Z,5.61
2019-05-11T05:08:44.791Z,5.74
2019-05-11T05:13:47.458Z,5.44
2019-05-11T05:18:50.702Z,5.83
2019-05-11T05:23:54.008Z,6.19
2019-05-11T05:28:56.941Z,6.52
2019-05-11T05:34:01.490Z,6.56
2019-05-11T05:39:08.877Z,6.80
2019-05-11T05:44:11.872Z,7.06
2019-05-11T05:49:15.150Z,7.28
2019-05-11T05:54:17.698Z,7.60
2019-05-11T05:59:20.893Z,7.79
2019-05-11T06:04:24.921Z,7.97
2019-05-11T06:09:28.115Z,8.23
2019-05-11T06:14:30.973Z,8.34
2019-05-11T06:19:34.724Z,8.61
2019-05-11T06:24:37.654Z,8.77
2019-05-11T06:29:40.545Z,9.08
2019-05-11T06:34:44.483Z,9.30
2019-05-11T06:39:47.387Z,9.27
2019-05-11T06:44:50.596Z,9.47
2019-05-11T06:49:54.217Z,9.63
2019-05-11T06:54:57.427Z,9.33
2019-05-11T07:00:00.633Z,9.33
2019-05-11T07:05:03.747Z,9.66
2019-05-11T07:10:07.155Z,9.70
2019-05-11T07:15:10.810Z,10.05
2019-05-11T07:20:14.080Z,10.20
2019-05-11T07:25:16.924Z,10.54
2019-05-11T07:30:19.865Z,10.58
2019-05-11T07:35:23.087Z,10.65
2019-05-11T07:40:27.927Z,10.18
2019-05-11T07:45:30.855Z,9.68
2019-05-11T07:50:34.152Z,9.98
2019-05-11T07:55:38.489Z,10.89
2019-05-11T08:00:41.430Z,11.21
2019-05-11T08:05:44.599Z,11.39
2019-05-11T08:10:48.431Z,11.57
2019-05-11T08:15:51.126Z,11.39
2019-05-11T08:20:54.322Z,11.50
2019-05-11T08:25:58.290Z,11.67
2019-05-11T08:31:01.213Z,11.75
2019-05-11T08:36:05.610Z,11.79
2019-05-11T08:41:08.530Z,11.97
2019-05-11T08:46:11.064Z,11.92
2019-05-11T08:51:14.336Z,11.63
2019-05-11T08:56:18.889Z,11.79
2019-05-11T09:01:22.862Z,11.93
2019-05-11T09:06:28.242Z,12.19
2019-05-11T09:11:31.102Z,12.56
2019-05-11T09:16:34.889Z,12.38
2019-05-11T09:21:40.744Z,12.41
2019-05-11T09:26:43.949Z,12.52
2019-05-11T09:31:48.702Z,12.69
2019-05-11T09:36:51.849Z,12.70
2019-05-11T09:41:54.990Z,12.70
2019-05-11T09:47:01.832Z,13.42
2019-05-11T09:52:04.524Z,14.67
2019-05-11T09:57:10.318Z,14.73
2019-05-11T10:02:17.653Z,15.27
2019-05-11T10:07:20.168Z,15.12
2019-05-11T10:12:23.214Z,15.63
2019-05-11T10:17:28.794Z,15.47
2019-05-11T10:22:31.488Z,15.72
2019-05-11T10:27:34.686Z,15.89
2019-05-11T10:32:40.843Z,14.77
2019-05-11T10:37:43.553Z,15.14
2019-05-11T10:42:48.389Z,15.71
2019-05-11T10:47:55.777Z,16.20
2019-05-11T10:52:59.031Z,16.09
2019-05-11T10:58:02.538Z,14.98
2019-05-11T11:03:08.286Z,14.93
2019-05-11T11:08:10.776Z,15.03
2019-05-11T11:13:14.096Z,15.16
2019-05-11T11:18:18.849Z,14.52
2019-05-11T11:23:22.667Z,14.34
2019-05-11T11:28:27.879Z,15.00
2019-05-11T11:33:30.833Z,15.11
2019-05-11T11:38:33.427Z,15.62
2019-05-11T11:43:37.736Z,15.39
2019-05-11T11:48:40.579Z,15.85
2019-05-11T11:53:44.091Z,15.95
2019-05-11T11:58:48.804Z,15.84
2019-05-11T12:03:52.321Z,15.86
2019-05-11T12:08:58.517Z,16.15
2019-05-11T12:14:01.192Z,16.54
2019-05-11T12:19:05.366Z,16.25
2019-05-11T12:24:09.050Z,16.44
2019-05-11T12:29:12.615Z,16.84
2019-05-11T12:34:17.950Z,17.27
2019-05-11T12:39:21.317Z,17.10
2019-05-11T12:44:24.855Z,17.24
2019-05-11T12:49:28.877Z,17.30
2019-05-11T12:54:33.988Z,17.25
2019-05-11T12:59:39.967Z,17.33
2019-05-11T13:04:43.403Z,17.22
2019-05-11T13:09:48.422Z,17.64
2019-05-11T13:14:51.388Z,17.66
2019-05-11T13:19:54.700Z,17.64
2019-05-11T13:24:58.846Z,18.40
2019-05-11T13:30:02.356Z,18.47
2019-05-11T13:35:05.917Z,18.51
2019-05-11T13:40:09.751Z,19.42
2019-05-11T13:45:13.013Z,19.63
2019-05-11T13:50:17.760Z,19.39
2019-05-11T13:55:20.861Z,20.67
2019-05-11T14:00:23.761Z,20.78
2019-05-11T14:05:28.476Z,20.47
2019-05-11T14:10:31.952Z,20.91
2019-05-11T14:15:35.093Z,21.13
2019-05-11T14:20:37.968Z,21.00
2019-05-11T14:25:41.407Z,20.48
2019-05-11T14:30:44.576Z,20.69
2019-05-11T14:35:48.953Z,20.94
2019-05-11T14:40:52.343Z,21.19
2019-05-11T14:45:55.215Z,20.88
2019-05-11T14:50:59.351Z,21.24
2019-05-11T14:56:02.455Z,21.22
2019-05-11T15:01:05.356Z,20.91
2019-05-11T15:06:08.911Z,21.12
2019-05-11T15:11:11.898Z,21.66
2019-05-11T15:16:18.475Z,20.87
2019-05-11T15:21:21.383Z,21.90
2019-05-11T15:26:24.576Z,22.25
2019-05-11T15:31:28.087Z,21.76
2019-05-11T15:36:30.682Z,21.94
2019-05-11T15:41:33.837Z,22.08
2019-05-11T15:46:38.765Z,22.32
2019-05-11T15:51:42.106Z,22.65
2019-05-11T15:56:45.680Z,22.66
2019-05-11T16:01:48.894Z,22.38
2019-05-11T16:06:52.441Z,21.53
2019-05-11T16:11:55.819Z,21.77
2019-05-11T16:16:58.731Z,21.96
2019-05-11T16:22:03.054Z,21.42
2019-05-11T16:27:08.351Z,21.53
2019-05-11T16:32:11.746Z,21.27
2019-05-11T16:37:14.974Z,21.42
2019-05-11T16:42:18.049Z,21.15
2019-05-11T16:47:21.270Z,20.62
2019-05-11T16:52:24.507Z,20.71
2019-05-11T16:57:27.474Z,20.30
2019-05-11T17:02:30.637Z,20.11
2019-05-11T17:07:33.913Z,20.33
2019-05-11T17:12:38.536Z,20.44
2019-05-11T17:17:42.038Z,20.46
2019-05-11T17:22:47.499Z,19.90
2019-05-11T17:27:50.184Z,20.00
2019-05-11T17:32:53.790Z,19.83
2019-05-11T17:37:57.054Z,19.27
2019-05-11T17:43:00.556Z,18.90
2019-05-11T17:48:03.463Z,18.69
2019-05-11T17:53:06.669Z,17.97
2019-05-11T17:58:09.993Z,17.57
2019-05-11T18:03:13.632Z,17.16
2019-05-11T18:08:18.729Z,17.12
2019-05-11T18:13:22.444Z,16.94
2019-05-11T18:18:25.721Z,16.87
2019-05-11T18:23:29.184Z,16.41
2019-05-11T18:28:32.209Z,15.62
2019-05-11T18:33:38.018Z,15.22
2019-05-11T18:38:40.960Z,14.94
2019-05-11T18:43:44.717Z,14.61
2019-05-11T18:48:48.693Z,14.45
2019-05-11T18:53:52.259Z,14.17
2019-05-11T18:58:55.472Z,14.00
2019-05-11T19:04:00.116Z,13.79
2019-05-11T19:09:06.149Z,13.58
2019-05-11T19:14:09.408Z,13.38
2019-05-11T19:19:12.712Z,13.24
2019-05-11T19:24:15.706Z,13.04
2019-05-11T19:29:21.181Z,12.88
2019-05-11T19:34:24.482Z,12.85
2019-05-11T19:39:28.147Z,12.60
2019-05-11T19:44:31.085Z,12.63
2019-05-11T19:49:34.093Z,12.42
2019-05-11T19:54:38.279Z,12.18
2019-05-11T19:59:41.364Z,12.06
2019-05-11T20:04:44.676Z,11.98
2019-05-11T20:09:47.575Z,11.92
2019-05-11T20:14:51.062Z,11.85
2019-05-11T20:19:54.779Z,11.72
2019-05-11T20:24:58.137Z,11.51
2019-05-11T20:30:04.293Z,11.48
2019-05-11T20:35:08.562Z,11.35
2019-05-11T20:40:12.301Z,11.28
2019-05-11T20:45:14.765Z,11.18
2019-05-11T20:50:18.691Z,11.05
2019-05-11T20:55:22.193Z,11.08
2019-05-11T21:00:27.882Z,10.86
2019-05-11T21:05:30.989Z,10.84
2019-05-11T21:10:34.298Z,10.69
2019-05-11T21:15:38.444Z,10.56
2019-05-11T21:20:41.720Z,10.66
2019-05-11T21:25:45.031Z,10.59
2019-05-11T21:30:48.240Z,10.53
2019-05-11T21:35:51.545Z,10.36
2019-05-11T21:40:57.943Z,10.19
2019-05-11T21:46:01.500Z,10.06
2019-05-11T21:51:04.324Z,10.04
2019-05-11T21:56:08.235Z,9.75
2019-05-11T22:01:12.086Z,9.84
2019-05-11T22:06:15.393Z,9.65
2019-05-11T22:11:18.654Z,9.48
2019-05-11T22:16:22.252Z,9.53
2019-05-11T22:21:27.833Z,9.44
2019-05-11T22:26:30.619Z,9.34
2019-05-11T22:31:33.191Z,9.24
2019-05-11T22:36:38.080Z,9.17
2019-05-11T22:41:40.451Z,9.30
2019-05-11T22:46:43.736Z,9.12
2019-05-11T22:51:46.664Z,9.17
2019-05-11T22:56:49.883Z,8.97
2019-05-11T23:01:52.802Z,9.01
2019-05-11T23:06:58.343Z,9.09
2019-05-11T23:12:01.226Z,8.71
2019-05-11T23:17:04.862Z,8.63
2019-05-11T23:22:08.405Z,8.76
2019-05-11T23:27:11.277Z,8.74
2019-05-11T23:32:14.241Z,8.65
2019-05-11T23:37:18.390Z,8.56
2019-05-11T23:42:21.589Z,8.60
2019-05-11T23:47:24.837Z,8.66
2019-05-11T23:52:29.532Z,8.49
2019-05-11T23:57:33.352Z,8.36
